createdAt,value
2018-07-28T00:01:51.007Z,99137.00
2018-07-28T00:04:21.291Z,99137.00
2018-07-28T00:06:52.492Z,99140.00
2018-07-28T00:09:22.733Z,99133.00
2018-07-28T00:11:53.063Z,99129.00
2018-07-28T00:14:23.285Z,99129.00
2018-07-28T00:16:54.404Z,99115.00
2018-07-28T00:19:25.857Z,99108.00
2018-07-28T00:21:55.960Z,99110.00
2018-07-28T00:24:26.366Z,99107.00
2018-07-28T00:26:56.692Z,99094.00
2018-07-28T00:29:27.538Z,99098.00
2018-07-28T00:31:57.843Z,99088.00
2018-07-28T00:34:27.912Z,99077.00
2018-07-28T00:36:58.147Z,99074.00
2018-07-28T00:39:28.531Z,99070.00
2018-07-28T00:41:58.652Z,99074.00
2018-07-28T00:44:29.123Z,99064.00
2018-07-28T00:46:59.863Z,99061.00
2018-07-28T00:49:29.857Z,99048.00
2018-07-28T00:52:00.210Z,99050.00
2018-07-28T00:54:30.878Z,99042.00
2018-07-28T00:57:01.305Z,99038.00
2018-07-28T00:59:32.343Z,99050.00
2018-07-28T01:02:02.520Z,99038.00
2018-07-28T01:04:32.664Z,99033.00
2018-07-28T01:07:02.757Z,99035.00
2018-07-28T01:09:33.260Z,99029.00
2018-07-28T01:12:03.660Z,99023.00
2018-07-28T01:14:33.968Z,99014.00
2018-07-28T01:17:04.207Z,99006.00
2018-07-28T01:19:34.346Z,99000.00
2018-07-28T01:22:05.574Z,98995.00
2018-07-28T01:24:35.892Z,98994.00
2018-07-28T01:27:06.255Z,98991.00
2018-07-28T01:29:36.444Z,99001.00
2018-07-28T01:32:06.489Z,98991.00
2018-07-28T01:34:36.980Z,98987.00
2018-07-28T01:37:07.392Z,98973.00
2018-07-28T01:39:37.771Z,98961.00
2018-07-28T01:42:08.021Z,98962.00
2018-07-28T01:44:38.119Z,98949.00
2018-07-28T01:47:08.336Z,98937.00
2018-07-28T01:49:38.601Z,98943.00
2018-07-28T01:52:09.180Z,98944.00
2018-07-28T01:54:39.299Z,98955.00
2018-07-28T01:57:09.727Z,98954.00
2018-07-28T01:59:39.869Z,98957.00
2018-07-28T02:02:10.182Z,98951.00
2018-07-28T02:04:40.556Z,98941.00
2018-07-28T02:07:10.877Z,98942.00
2018-07-28T02:09:41.223Z,98946.00
2018-07-28T02:12:11.501Z,98930.00
2018-07-28T02:14:41.813Z,98931.00
2018-07-28T02:17:11.998Z,98925.00
2018-07-28T02:19:42.141Z,98926.00
2018-07-28T02:22:12.685Z,98923.00
2018-07-28T02:24:42.969Z,98912.00
2018-07-28T02:27:13.090Z,98905.00
2018-07-28T02:29:43.032Z,98901.00
2018-07-28T02:32:12.888Z,98895.00
2018-07-28T02:34:43.012Z,98899.00
2018-07-28T02:37:13.160Z,98883.00
2018-07-28T02:39:43.368Z,98886.00
2018-07-28T02:42:13.567Z,98884.00
2018-07-28T02:44:44.010Z,98879.00
2018-07-28T02:47:14.220Z,98862.00
2018-07-28T02:49:44.265Z,98864.00
2018-07-28T02:52:14.804Z,98857.00
2018-07-28T02:54:45.024Z,98851.00
2018-07-28T02:57:16.537Z,98843.00
2018-07-28T02:59:46.875Z,98836.00
2018-07-28T03:02:16.822Z,98835.00
2018-07-28T03:04:46.857Z,98822.00
2018-07-28T03:07:19.420Z,98821.00
2018-07-28T03:09:50.219Z,98818.00
2018-07-28T03:12:21.124Z,98817.00
2018-07-28T03:14:51.460Z,98812.00
2018-07-28T03:17:22.245Z,98807.00
2018-07-28T03:19:52.436Z,98809.00
2018-07-28T03:22:22.416Z,98795.00
2018-07-28T03:24:52.575Z,98795.00
2018-07-28T03:27:22.678Z,98793.00
2018-07-28T03:29:52.422Z,98785.00
2018-07-28T03:32:22.733Z,98783.00
2018-07-28T03:34:52.912Z,98773.00
2018-07-28T03:37:23.444Z,98769.00
2018-07-28T03:39:54.627Z,98775.00
2018-07-28T03:42:24.947Z,98772.00
2018-07-28T03:44:54.866Z,98776.00
2018-07-28T03:47:25.224Z,98783.00
2018-07-28T03:49:55.309Z,98786.00
2018-07-28T03:52:25.899Z,98780.00
2018-07-28T03:54:56.476Z,98787.00
2018-07-28T03:57:26.710Z,98792.00
2018-07-28T03:59:56.931Z,98782.00
2018-07-28T04:02:27.069Z,98775.00
2018-07-28T04:04:57.103Z,98772.00
2018-07-28T04:07:27.336Z,98766.00
2018-07-28T04:09:57.502Z,98761.00
2018-07-28T04:12:27.919Z,98762.00
2018-07-28T04:14:57.633Z,98752.00
2018-07-28T04:17:28.471Z,98744.00
2018-07-28T04:19:58.949Z,98745.00
2018-07-28T04:22:29.266Z,98695.00
2018-07-28T04:24:59.627Z,98734.00
2018-07-28T04:27:29.594Z,98716.00
2018-07-28T04:29:59.490Z,98716.00
2018-07-28T04:32:29.398Z,98719.00
2018-07-28T04:34:59.878Z,98721.00
2018-07-28T04:37:29.872Z,98717.00
2018-07-28T04:39:59.884Z,98723.00
2018-07-28T04:42:30.170Z,98722.00
2018-07-28T04:45:00.231Z,98724.00
2018-07-28T04:47:31.063Z,98713.00
2018-07-28T04:50:01.459Z,98708.00
2018-07-28T04:52:32.074Z,98702.00
2018-07-28T04:55:03.236Z,98693.00
2018-07-28T04:57:33.467Z,98675.00
2018-07-28T05:00:04.122Z,98671.00
2018-07-28T05:02:34.796Z,98656.00
2018-07-28T05:05:06.099Z,98657.00
2018-07-28T05:07:37.484Z,98649.00
2018-07-28T05:10:07.950Z,98665.00
2018-07-28T05:12:38.154Z,98664.00
2018-07-28T05:15:08.302Z,98664.00
2018-07-28T05:17:38.749Z,98655.00
2018-07-28T05:20:09.280Z,98656.00
2018-07-28T05:22:39.406Z,98654.00
2018-07-28T05:25:09.447Z,98643.00
2018-07-28T05:27:39.616Z,98662.00
2018-07-28T05:30:14.701Z,98680.00
2018-07-28T05:32:45.211Z,98694.00
2018-07-28T05:35:15.111Z,98709.00
2018-07-28T05:37:45.760Z,98702.00
2018-07-28T05:40:16.004Z,98704.00
2018-07-28T05:42:46.103Z,98712.00
2018-07-28T05:45:16.069Z,98709.00
2018-07-28T05:47:47.002Z,98712.00
2018-07-28T05:50:17.647Z,98715.00
2018-07-28T05:52:48.051Z,98722.00
2018-07-28T05:55:18.408Z,98712.00
2018-07-28T05:57:49.174Z,98730.00
2018-07-28T06:00:19.794Z,98731.00
2018-07-28T06:02:50.260Z,98732.00
2018-07-28T06:05:20.632Z,98735.00
2018-07-28T06:07:50.899Z,98746.00
2018-07-28T06:10:21.487Z,98744.00
2018-07-28T06:12:51.550Z,98740.00
2018-07-28T06:15:21.715Z,98747.00
2018-07-28T06:17:52.434Z,98743.00
2018-07-28T06:20:23.633Z,98752.00
2018-07-28T06:22:53.675Z,98761.00
2018-07-28T06:25:24.146Z,98736.00
2018-07-28T06:27:54.978Z,98745.00
2018-07-28T06:30:25.661Z,98742.00
2018-07-28T06:32:56.956Z,98740.00
2018-07-28T06:35:26.800Z,98737.00
2018-07-28T06:37:56.950Z,98739.00
2018-07-28T06:40:27.279Z,98747.00
2018-07-28T06:42:57.595Z,98750.00
2018-07-28T06:45:27.495Z,98766.00
2018-07-28T06:47:57.505Z,98762.00
2018-07-28T06:50:27.747Z,98760.00
2018-07-28T06:52:58.086Z,98764.00
2018-07-28T06:55:28.153Z,98762.00
2018-07-28T06:57:58.256Z,98769.00
2018-07-28T07:00:28.580Z,98762.00
2018-07-28T07:02:58.405Z,98752.00
2018-07-28T07:05:28.979Z,98747.00
2018-07-28T07:07:58.939Z,98768.00
2018-07-28T07:10:29.743Z,98768.00
2018-07-28T07:12:59.810Z,98766.00
2018-07-28T07:15:30.156Z,98792.00
2018-07-28T07:18:00.786Z,98784.00
2018-07-28T07:20:31.648Z,98775.00
2018-07-28T07:23:01.875Z,98800.00
2018-07-28T07:25:32.138Z,98795.00
2018-07-28T07:28:02.297Z,98813.00
2018-07-28T07:30:32.983Z,98808.00
2018-07-28T07:33:03.473Z,98810.00
2018-07-28T07:35:33.751Z,98821.00
2018-07-28T07:38:03.715Z,98820.00
2018-07-28T07:40:34.213Z,98831.00
2018-07-28T07:43:04.395Z,98837.00
2018-07-28T07:45:34.254Z,98835.00
2018-07-28T07:48:04.581Z,98839.00
2018-07-28T07:50:34.571Z,98848.00
2018-07-28T07:53:04.743Z,98860.00
2018-07-28T07:55:35.042Z,98851.00
2018-07-28T07:58:05.645Z,98856.00
2018-07-28T08:00:35.727Z,98867.00
2018-07-28T08:03:05.821Z,98874.00
2018-07-28T08:05:35.946Z,98877.00
2018-07-28T08:08:06.284Z,98863.00
2018-07-28T08:10:36.408Z,98888.00
2018-07-28T08:13:06.513Z,98899.00
2018-07-28T08:15:36.581Z,98877.00
2018-07-28T08:18:06.944Z,98886.00
2018-07-28T08:20:37.100Z,98884.00
2018-07-28T08:23:07.347Z,98875.00
2018-07-28T08:25:37.467Z,98894.00
2018-07-28T08:28:07.597Z,98889.00
2018-07-28T08:30:37.640Z,98893.00
2018-07-28T08:33:08.150Z,98900.00
2018-07-28T08:35:38.240Z,98894.00
2018-07-28T08:38:08.772Z,98906.00
2018-07-28T08:40:38.936Z,98912.00
2018-07-28T08:43:09.317Z,98903.00
2018-07-28T08:45:39.624Z,98896.00
2018-07-28T08:48:09.866Z,98884.00
2018-07-28T08:50:40.188Z,98924.00
2018-07-28T08:53:11.109Z,98926.00
2018-07-28T08:55:41.618Z,98911.00
2018-07-28T08:58:12.715Z,98917.00
2018-07-28T09:00:43.222Z,98915.00
2018-07-28T09:03:13.676Z,98913.00
2018-07-28T09:05:43.901Z,98936.00
2018-07-28T09:08:14.174Z,98892.00
2018-07-28T09:10:46.321Z,98931.00
2018-07-28T09:13:16.743Z,98948.00
2018-07-28T09:15:46.970Z,98950.00
2018-07-28T09:18:17.216Z,98980.00
2018-07-28T09:20:47.683Z,98950.00
2018-07-28T09:23:18.137Z,98958.00
2018-07-28T09:25:48.186Z,98954.00
2018-07-28T09:28:18.636Z,98970.00
2018-07-28T09:30:49.262Z,98966.00
2018-07-28T09:33:19.873Z,98978.00
2018-07-28T09:35:50.251Z,98981.00
2018-07-28T09:38:20.188Z,98982.00
2018-07-28T09:40:50.520Z,98978.00
2018-07-28T09:43:20.710Z,99020.00
2018-07-28T09:45:51.895Z,98996.00
2018-07-28T09:48:22.121Z,98990.00
2018-07-28T09:50:52.288Z,99013.00
2018-07-28T09:53:22.475Z,99018.00
2018-07-28T09:55:53.463Z,99024.00
2018-07-28T09:58:23.654Z,99007.00
2018-07-28T10:01:00.359Z,99016.00
2018-07-28T10:03:30.596Z,99015.00
2018-07-28T10:06:00.703Z,99006.00
2018-07-28T10:08:31.037Z,99002.00
2018-07-28T10:11:01.457Z,99002.00
2018-07-28T10:13:31.719Z,98999.00
2018-07-28T10:16:02.575Z,99014.00
2018-07-28T10:18:32.923Z,99008.00
2018-07-28T10:21:02.995Z,99001.00
2018-07-28T10:23:33.291Z,98996.00
2018-07-28T10:26:03.532Z,98989.00
2018-07-28T10:28:33.984Z,98991.00
2018-07-28T10:31:04.928Z,98983.00
2018-07-28T10:33:35.484Z,98986.00
2018-07-28T10:36:06.108Z,98988.00
2018-07-28T10:38:36.493Z,98981.00
2018-07-28T10:41:08.112Z,98990.00
2018-07-28T10:43:38.518Z,98986.00
2018-07-28T10:46:08.625Z,98993.00
2018-07-28T10:48:38.711Z,99015.00
2018-07-28T10:51:08.933Z,98997.00
2018-07-28T10:53:39.458Z,99016.00
2018-07-28T10:56:09.383Z,99027.00
2018-07-28T10:58:39.531Z,99018.00
2018-07-28T11:01:10.462Z,99006.00
2018-07-28T11:03:41.423Z,99003.00
2018-07-28T11:06:11.575Z,99011.00
2018-07-28T11:08:41.605Z,99014.00
2018-07-28T11:11:11.867Z,99003.00
2018-07-28T11:13:42.259Z,99008.00
2018-07-28T11:16:12.710Z,99025.00
2018-07-28T11:18:42.765Z,99011.00
2018-07-28T11:21:12.861Z,99019.00
2018-07-28T11:23:59.434Z,99024.00
2018-07-28T11:26:29.919Z,99032.00
2018-07-28T11:29:00.131Z,99025.00
2018-07-28T11:31:46.966Z,99019.00
2018-07-28T11:34:33.481Z,99032.00
2018-07-28T11:37:20.349Z,99042.00
2018-07-28T11:40:07.128Z,99036.00
2018-07-28T11:42:54.313Z,99023.00
2018-07-28T11:45:25.841Z,99029.00
2018-07-28T11:47:56.118Z,99036.00
2018-07-28T11:50:26.298Z,99027.00
2018-07-28T11:52:57.582Z,99047.00
2018-07-28T11:55:28.682Z,99035.00
2018-07-28T11:57:59.319Z,99034.00
2018-07-28T12:00:30.624Z,99035.00
2018-07-28T12:03:00.838Z,99031.00
2018-07-28T12:05:30.849Z,99029.00
2018-07-28T12:08:01.805Z,99017.00
2018-07-28T12:10:32.039Z,99020.00
2018-07-28T12:13:02.444Z,99025.00
2018-07-28T12:15:39.344Z,99014.00
2018-07-28T12:18:09.985Z,99000.00
2018-07-28T12:20:40.541Z,99013.00
2018-07-28T12:23:11.259Z,99014.00
2018-07-28T12:25:42.012Z,98997.00
2018-07-28T12:28:12.583Z,99025.00
2018-07-28T12:30:43.205Z,99022.00
2018-07-28T12:33:14.515Z,99057.00
2018-07-28T12:35:44.684Z,99031.00
2018-07-28T12:38:15.570Z,99036.00
2018-07-28T12:40:45.553Z,99037.00
2018-07-28T12:43:15.994Z,99035.00
2018-07-28T12:45:46.058Z,99033.00
2018-07-28T12:48:16.347Z,99023.00
2018-07-28T12:50:46.832Z,99009.00
2018-07-28T12:53:17.080Z,99008.00
2018-07-28T12:55:47.195Z,99012.00
2018-07-28T12:58:17.265Z,99013.00
2018-07-28T13:00:48.089Z,99009.00
2018-07-28T13:03:18.188Z,99017.00
2018-07-28T13:05:49.498Z,99016.00
2018-07-28T13:08:19.722Z,99009.00
2018-07-28T13:10:51.112Z,99009.00
2018-07-28T13:13:22.315Z,98999.00
2018-07-28T13:15:52.867Z,98993.00
2018-07-28T13:18:23.021Z,99002.00
2018-07-28T13:20:53.505Z,98997.00
2018-07-28T13:23:24.532Z,98997.00
2018-07-28T13:25:57.082Z,99001.00
2018-07-28T13:28:27.881Z,99012.00
2018-07-28T13:30:58.305Z,99016.00
2018-07-28T13:33:28.669Z,99018.00
2018-07-28T13:35:58.774Z,99012.00
2018-07-28T13:38:29.141Z,99018.00
2018-07-28T13:40:59.513Z,99064.00
2018-07-28T13:43:29.913Z,99025.00
2018-07-28T13:46:00.144Z,99033.00
2018-07-28T13:48:30.348Z,99036.00
2018-07-28T13:51:01.967Z,99036.00
2018-07-28T13:53:31.942Z,99035.00
2018-07-28T13:56:02.206Z,99073.00
2018-07-28T13:58:32.384Z,99086.00
2018-07-28T14:01:02.991Z,99073.00
2018-07-28T14:03:33.049Z,99076.00
2018-07-28T14:06:04.318Z,99072.00
2018-07-28T14:08:37.485Z,99082.00
2018-07-28T14:11:08.337Z,99082.00
2018-07-28T14:13:38.542Z,99104.00
2018-07-28T14:16:09.194Z,99099.00
2018-07-28T14:18:40.236Z,99094.00
2018-07-28T14:21:10.530Z,99123.00
2018-07-28T14:23:40.732Z,99135.00
2018-07-28T14:26:10.975Z,99134.00
2018-07-28T14:28:41.382Z,99139.00
2018-07-28T14:31:11.680Z,99136.00
2018-07-28T14:33:41.691Z,99131.00
2018-07-28T14:36:12.554Z,99116.00
2018-07-28T14:38:45.761Z,99118.00
2018-07-28T14:41:16.245Z,99131.00
2018-07-28T14:43:46.198Z,99125.00
2018-07-28T14:46:16.665Z,99126.00
2018-07-28T14:48:46.930Z,99135.00
2018-07-28T14:51:17.365Z,99132.00
2018-07-28T14:53:47.351Z,99145.00
2018-07-28T14:56:17.994Z,99147.00
2018-07-28T14:58:48.923Z,99147.00
2018-07-28T15:01:19.662Z,99124.00
2018-07-28T15:03:49.912Z,99116.00
2018-07-28T15:06:19.995Z,99139.00
2018-07-28T15:08:49.981Z,99138.00
2018-07-28T15:11:20.354Z,99151.00
2018-07-28T15:13:50.728Z,99173.00
2018-07-28T15:16:20.932Z,99158.00
2018-07-28T15:18:51.462Z,99147.00
2018-07-28T15:21:21.875Z,99148.00
2018-07-28T15:23:52.265Z,99149.00
2018-07-28T15:26:23.261Z,99141.00
2018-07-28T15:28:54.354Z,99106.00
2018-07-28T15:31:25.826Z,99150.00
2018-07-28T15:33:58.203Z,99150.00
2018-07-28T15:36:28.431Z,99147.00
2018-07-28T15:39:01.456Z,99136.00
2018-07-28T15:41:32.804Z,99138.00
2018-07-28T15:44:03.117Z,99135.00
2018-07-28T15:46:33.429Z,99122.00
2018-07-28T15:49:04.124Z,99126.00
2018-07-28T15:51:34.475Z,99115.00
2018-07-28T15:54:05.668Z,99126.00
2018-07-28T15:56:36.073Z,99116.00
2018-07-28T15:59:06.101Z,99109.00
2018-07-28T16:01:36.270Z,99115.00
2018-07-28T16:04:06.572Z,99114.00
2018-07-28T16:06:36.828Z,99124.00
2018-07-28T16:09:10.055Z,99133.00
2018-07-28T16:11:40.585Z,99140.00
2018-07-28T16:14:10.845Z,99146.00
2018-07-28T16:16:41.049Z,99100.00
2018-07-28T16:19:12.104Z,99108.00
2018-07-28T16:21:42.288Z,99091.00
2018-07-28T16:24:12.735Z,99083.00
2018-07-28T16:26:43.017Z,99079.00
2018-07-28T16:29:13.972Z,99110.00
2018-07-28T16:31:44.627Z,99167.00
2018-07-28T16:34:14.880Z,99126.00
2018-07-28T16:36:44.922Z,99129.00
2018-07-28T16:39:15.472Z,99103.00
2018-07-28T16:41:45.600Z,99117.00
2018-07-28T16:44:16.076Z,99127.00
2018-07-28T16:46:46.150Z,99122.00
2018-07-28T16:49:16.215Z,99093.00
2018-07-28T16:51:46.459Z,99107.00
2018-07-28T16:54:16.359Z,99091.00
2018-07-28T16:56:46.398Z,99099.00
2018-07-28T16:59:16.512Z,99083.00
2018-07-28T17:01:46.642Z,99091.00
2018-07-28T17:04:16.753Z,99084.00
2018-07-28T17:06:47.323Z,99074.00
2018-07-28T17:09:17.531Z,99078.00
2018-07-28T17:11:47.767Z,99099.00
2018-07-28T17:14:18.564Z,99102.00
2018-07-28T17:16:49.015Z,99107.00
2018-07-28T17:19:19.013Z,99103.00
2018-07-28T17:21:49.159Z,99111.00
2018-07-28T17:24:19.366Z,99116.00
2018-07-28T17:26:50.245Z,99113.00
2018-07-28T17:29:20.214Z,99129.00
2018-07-28T17:31:57.082Z,99138.00
2018-07-28T17:34:27.066Z,99137.00
2018-07-28T17:36:57.292Z,99134.00
2018-07-28T17:39:27.522Z,99135.00
2018-07-28T17:42:00.569Z,99138.00
2018-07-28T17:44:30.729Z,99146.00
2018-07-28T17:47:00.982Z,99152.00
2018-07-28T17:49:31.374Z,99153.00
2018-07-28T17:52:01.622Z,99170.00
2018-07-28T17:54:31.706Z,99142.00
2018-07-28T17:57:01.940Z,99141.00
2018-07-28T17:59:33.085Z,99151.00
2018-07-28T18:02:03.606Z,99143.00
2018-07-28T18:04:33.802Z,99149.00
2018-07-28T18:07:04.625Z,99155.00
2018-07-28T18:09:35.246Z,99151.00
2018-07-28T18:12:05.523Z,99151.00
2018-07-28T18:14:37.355Z,99144.00
2018-07-28T18:17:07.160Z,99143.00
2018-07-28T18:19:39.601Z,99175.00
2018-07-28T18:22:10.464Z,99163.00
2018-07-28T18:24:41.421Z,99170.00
2018-07-28T18:27:11.937Z,99180.00
2018-07-28T18:29:42.535Z,99181.00
2018-07-28T18:32:12.870Z,99175.00
2018-07-28T18:34:43.849Z,99174.00
2018-07-28T18:37:14.073Z,99181.00
2018-07-28T18:39:45.443Z,99171.00
2018-07-28T18:42:15.698Z,99182.00
2018-07-28T18:44:46.168Z,99186.00
2018-07-28T18:47:16.881Z,99192.00
2018-07-28T18:49:47.007Z,99187.00
2018-07-28T18:52:17.117Z,99192.00
2018-07-28T18:54:47.146Z,99199.00
2018-07-28T18:57:17.320Z,99201.00
2018-07-28T18:59:48.441Z,99196.00
2018-07-28T19:02:19.011Z,99208.00
2018-07-28T19:04:50.016Z,99214.00
2018-07-28T19:07:21.024Z,99201.00
2018-07-28T19:09:52.343Z,99206.00
2018-07-28T19:12:27.652Z,99222.00
2018-07-28T19:15:00.615Z,99224.00
2018-07-28T19:17:35.642Z,99226.00
2018-07-28T19:20:12.223Z,99236.00
2018-07-28T19:22:47.511Z,99214.00
2018-07-28T19:25:18.685Z,99232.00
2018-07-28T19:27:54.027Z,99223.00
2018-07-28T19:30:25.074Z,99236.00
2018-07-28T19:32:55.138Z,99243.00
2018-07-28T19:35:28.931Z,99237.00
2018-07-28T19:37:58.963Z,99208.00
2018-07-28T19:40:29.707Z,99253.00
2018-07-28T19:43:00.438Z,99259.00
2018-07-28T19:45:30.936Z,99259.00
2018-07-28T19:48:02.371Z,99262.00
2018-07-28T19:50:34.097Z,99261.00
2018-07-28T19:53:06.169Z,99252.00
2018-07-28T19:55:37.900Z,99256.00
2018-07-28T19:58:09.471Z,99258.00
2018-07-28T20:00:42.819Z,99248.00
2018-07-28T20:03:14.787Z,99255.00
2018-07-28T20:05:46.944Z,99260.00
2018-07-28T20:08:18.211Z,99250.00
2018-07-28T20:10:50.105Z,99257.00
2018-07-28T20:13:24.524Z,99246.00
2018-07-28T20:15:56.826Z,99260.00
2018-07-28T20:18:29.458Z,99262.00
2018-07-28T20:21:00.968Z,99270.00
2018-07-28T20:23:32.437Z,99272.00
2018-07-28T20:26:03.702Z,99270.00
2018-07-28T20:28:37.875Z,99274.00
2018-07-28T20:31:09.660Z,99278.00
2018-07-28T20:33:40.982Z,99275.00
2018-07-28T20:36:13.196Z,99279.00
2018-07-28T20:38:44.492Z,99286.00
2018-07-28T20:41:16.763Z,99293.00
2018-07-28T20:43:48.096Z,99283.00
2018-07-28T20:46:19.808Z,99276.00
2018-07-28T20:48:51.203Z,99282.00
2018-07-28T20:51:22.949Z,99276.00
2018-07-28T20:53:54.815Z,99292.00
2018-07-28T20:56:25.402Z,99277.00
2018-07-28T20:58:56.020Z,99280.00
2018-07-28T21:01:26.124Z,99279.00
2018-07-28T21:03:56.332Z,99279.00
2018-07-28T21:06:26.854Z,99278.00
2018-07-28T21:08:56.971Z,99289.00
2018-07-28T21:11:27.579Z,99287.00
2018-07-28T21:13:58.034Z,99286.00
2018-07-28T21:16:28.149Z,99296.00
2018-07-28T21:18:58.243Z,99281.00
2018-07-28T21:21:29.139Z,99281.00
2018-07-28T21:24:00.157Z,99284.00
2018-07-28T21:26:30.054Z,99288.00
2018-07-28T21:29:00.051Z,99296.00
2018-07-28T21:31:30.341Z,99287.00
2018-07-28T21:34:00.488Z,99294.00
2018-07-28T21:36:32.057Z,99299.00
2018-07-28T21:39:04.265Z,99297.00
2018-07-28T21:41:35.929Z,99298.00
2018-07-28T21:44:06.581Z,99304.00
2018-07-28T21:46:37.301Z,99305.00
2018-07-28T21:49:07.789Z,99304.00
2018-07-28T21:51:38.569Z,99295.00
2018-07-28T21:54:09.064Z,99293.00
2018-07-28T21:56:40.169Z,99298.00
2018-07-28T21:59:11.800Z,99295.00
2018-07-28T22:01:44.275Z,99294.00
2018-07-28T22:04:20.049Z,99297.00
2018-07-28T22:06:51.187Z,99296.00
2018-07-28T22:09:22.068Z,99298.00
2018-07-28T22:11:53.544Z,99295.00
2018-07-28T22:14:23.731Z,99290.00
2018-07-28T22:16:55.601Z,99289.00
2018-07-28T22:19:25.984Z,99289.00
2018-07-28T22:21:56.996Z,99287.00
2018-07-28T22:24:27.481Z,99298.00
2018-07-28T22:26:57.770Z,99293.00
2018-07-28T22:29:27.849Z,99281.00
2018-07-28T22:31:58.261Z,99276.00
2018-07-28T22:34:28.484Z,99275.00
2018-07-28T22:36:59.293Z,99280.00
2018-07-28T22:39:29.866Z,99276.00
2018-07-28T22:42:00.561Z,99273.00
2018-07-28T22:44:31.332Z,99280.00
2018-07-28T22:47:03.558Z,99282.00
2018-07-28T22:49:33.883Z,99285.00
2018-07-28T22:52:05.396Z,99279.00
2018-07-28T22:54:35.952Z,99279.00
2018-07-28T22:57:06.856Z,99274.00
2018-07-28T22:59:37.016Z,99289.00
2018-07-28T23:02:08.499Z,99287.00
2018-07-28T23:04:39.271Z,99278.00
2018-07-28T23:07:09.463Z,99291.00
2018-07-28T23:09:40.007Z,99282.00
2018-07-28T23:12:11.055Z,99273.00
2018-07-28T23:14:41.042Z,99278.00
2018-07-28T23:17:11.856Z,99277.00
2018-07-28T23:19:42.146Z,99276.00
2018-07-28T23:22:12.329Z,99274.00
2018-07-28T23:24:42.912Z,99274.00
2018-07-28T23:27:13.321Z,99279.00
2018-07-28T23:29:43.375Z,99274.00
2018-07-28T23:32:13.429Z,99271.00
2018-07-28T23:34:44.413Z,99280.00
2018-07-28T23:37:14.765Z,99279.00
2018-07-28T23:39:45.016Z,99275.00
2018-07-28T23:42:15.674Z,99275.00
2018-07-28T23:44:45.886Z,99278.00
2018-07-28T23:47:16.138Z,99276.00
2018-07-28T23:49:46.235Z,99278.00
2018-07-28T23:52:16.428Z,99265.00
2018-07-28T23:54:46.783Z,99267.00
2018-07-28T23:57:16.912Z,99270.00
2018-07-28T23:59:47.132Z,99271.00
